Terminal Aerodrome Forecast
Issued by NWS

Home | Current Version | Previous Version | Graphics & Text | Print | Product List | Glossary On
Versions: 1 2 3 4 5 6 7 8 9 10 11 12 13 14 15 16 17 18
000
FTUS43 KGRB 150843 AAA
TAFATW
TAF AMD
KATW 150843Z 1509/1606 02004KT 5SM BR OVC004
      TEMPO 1509/1513 2SM BR BKN006
     FM151400 05006KT P6SM SCT007 BKN025
     FM151600 06007KT P6SM SCT040
     FM152200 08007KT P6SM SCT110=

USA.gov is the U.S. government's official web portal to all federal, state and local government web resources and services.